sensor_id;sensor_type;location;lat;lon;timestamp;temperature;humidity
20035;DHT22;10178;48.034;9.800;2022-11-14T00:02:08;6.70;99.90
20035;DHT22;10178;48.034;9.800;2022-11-14T00:04:33;6.30;99.90
20035;DHT22;10178;48.034;9.800;2022-11-14T00:06:59;6.10;99.90
20035;DHT22;10178;48.034;9.800;2022-11-14T00:09:26;6.00;99.90
20035;DHT22;10178;48.034;9.800;2022-11-14T00:11:52;5.80;99.90
20035;DHT22;10178;48.034;9.800;2022-11-14T00:14:17;5.80;99.90
20035;DHT22;10178;48.034;9.800;2022-11-14T00:16:43;6.10;99.90
20035;DHT22;10178;48.034;9.800;2022-11-14T00:19:09;6.50;99.90
20035;DHT22;10178;48.034;9.800;2022-11-14T00:21:34;6.70;99.90
20035;DHT22;10178;48.034;9.800;2022-11-14T00:24:00;6.70;99.90
20035;DHT22;10178;48.034;9.800;2022-11-14T00:26:25;6.40;99.90
20035;DHT22;10178;48.034;9.800;2022-11-14T00:28:53;6.40;99.90
20035;DHT22;10178;48.034;9.800;2022-11-14T00:31:19;6.20;99.90
20035;DHT22;10178;48.034;9.800;2022-11-14T00:33:44;6.40;99.90
20035;DHT22;10178;48.034;9.800;2022-11-14T00:36:10;6.40;99.90
20035;DHT22;10178;48.034;9.800;2022-11-14T00:38:36;6.70;99.90
20035;DHT22;10178;48.034;9.800;2022-11-14T00:41:01;6.50;99.90
20035;DHT22;10178;48.034;9.800;2022-11-14T00:43:27;6.50;99.90
20035;DHT22;10178;48.034;9.800;2022-11-14T00:45:53;6.80;99.90
20035;DHT22;10178;48.034;9.800;2022-11-14T00:48:18;6.60;99.90
20035;DHT22;10178;48.034;9.800;2022-11-14T00:50:44;6.80;99.90
20035;DHT22;10178;48.034;9.800;2022-11-14T00:53:10;6.80;99.90
20035;DHT22;10178;48.034;9.800;2022-11-14T00:55:36;6.40;99.90
20035;DHT22;10178;48.034;9.800;2022-11-14T00:58:01;6.40;99.90
20035;DHT22;10178;48.034;9.800;2022-11-14T01:00:27;6.30;99.90
20035;DHT22;10178;48.034;9.800;2022-11-14T01:02:53;6.50;99.90
20035;DHT22;10178;48.034;9.800;2022-11-14T01:05:22;6.50;99.90
20035;DHT22;10178;48.034;9.800;2022-11-14T01:07:48;6.70;99.90
20035;DHT22;10178;48.034;9.800;2022-11-14T01:10:15;6.70;99.90
20035;DHT22;10178;48.034;9.800;2022-11-14T01:12:40;6.70;99.90
20035;DHT22;10178;48.034;9.800;2022-11-14T01:15:07;6.70;99.90
20035;DHT22;10178;48.034;9.800;2022-11-14T01:17:33;6.90;99.90
20035;DHT22;10178;48.034;9.800;2022-11-14T01:19:58;7.00;99.90
20035;DHT22;10178;48.034;9.800;2022-11-14T01:22:24;7.00;99.90
20035;DHT22;10178;48.034;9.800;2022-11-14T01:24:50;6.80;99.90
20035;DHT22;10178;48.034;9.800;2022-11-14T01:27:15;6.50;99.90
20035;DHT22;10178;48.034;9.800;2022-11-14T01:29:52;6.30;99.90
20035;DHT22;10178;48.034;9.800;2022-11-14T01:32:18;6.10;99.90
20035;DHT22;10178;48.034;9.800;2022-11-14T01:34:45;6.00;99.90
20035;DHT22;10178;48.034;9.800;2022-11-14T01:37:10;6.20;99.90
20035;DHT22;10178;48.034;9.800;2022-11-14T01:39:36;6.60;99.90
20035;DHT22;10178;48.034;9.800;2022-11-14T01:42:02;6.70;99.90
20035;DHT22;10178;48.034;9.800;2022-11-14T01:47:08;6.60;99.90
20035;DHT22;10178;48.034;9.800;2022-11-14T01:49:38;6.50;99.90
20035;DHT22;10178;48.034;9.800;2022-11-14T01:52:08;6.70;99.90
20035;DHT22;10178;48.034;9.800;2022-11-14T01:54:37;6.80;99.90
20035;DHT22;10178;48.034;9.800;2022-11-14T01:57:06;6.90;99.90
20035;DHT22;10178;48.034;9.800;2022-11-14T01:59:40;6.90;99.90
20035;DHT22;10178;48.034;9.800;2022-11-14T02:02:11;7.00;99.90
20035;DHT22;10178;48.034;9.800;2022-11-14T02:04:46;7.00;99.90
20035;DHT22;10178;48.034;9.800;2022-11-14T02:07:12;6.90;99.90
20035;DHT22;10178;48.034;9.800;2022-11-14T02:09:44;6.80;99.90
20035;DHT22;10178;48.034;9.800;2022-11-14T02:12:12;6.60;99.90
20035;DHT22;10178;48.034;9.800;2022-11-14T02:14:40;6.50;99.90
20035;DHT22;10178;48.034;9.800;2022-11-14T02:17:06;6.60;99.90
20035;DHT22;10178;48.034;9.800;2022-11-14T02:19:42;6.50;99.90
20035;DHT22;10178;48.034;9.800;2022-11-14T02:22:08;6.60;99.90
20035;DHT22;10178;48.034;9.800;2022-11-14T02:24:34;6.50;99.90
20035;DHT22;10178;48.034;9.800;2022-11-14T02:27:00;6.30;99.90
20035;DHT22;10178;48.034;9.800;2022-11-14T02:29:26;6.10;99.90
20035;DHT22;10178;48.034;9.800;2022-11-14T02:31:52;6.10;99.90
20035;DHT22;10178;48.034;9.800;2022-11-14T02:34:17;6.10;99.90
20035;DHT22;10178;48.034;9.800;2022-11-14T02:36:44;6.20;99.90
20035;DHT22;10178;48.034;9.800;2022-11-14T02:39:10;6.10;99.90
20035;DHT22;10178;48.034;9.800;2022-11-14T02:41:36;6.10;99.90
20035;DHT22;10178;48.034;9.800;2022-11-14T02:44:01;6.20;99.90
20035;DHT22;10178;48.034;9.800;2022-11-14T02:46:27;6.40;99.90
20035;DHT22;10178;48.034;9.800;2022-11-14T02:48:52;6.40;99.90
20035;DHT22;10178;48.034;9.800;2022-11-14T02:51:18;6.40;99.90
20035;DHT22;10178;48.034;9.800;2022-11-14T02:53:43;6.60;99.90
20035;DHT22;10178;48.034;9.800;2022-11-14T02:56:09;6.50;99.90
20035;DHT22;10178;48.034;9.800;2022-11-14T02:58:35;6.70;99.90
20035;DHT22;10178;48.034;9.800;2022-11-14T03:01:00;6.90;99.90
20035;DHT22;10178;48.034;9.800;2022-11-14T03:03:26;7.10;99.90
20035;DHT22;10178;48.034;9.800;2022-11-14T03:05:51;7.10;99.90
20035;DHT22;10178;48.034;9.800;2022-11-14T03:08:18;7.30;99.90
20035;DHT22;10178;48.034;9.800;2022-11-14T03:10:44;6.90;99.90
20035;DHT22;10178;48.034;9.800;2022-11-14T03:13:10;7.00;99.90
20035;DHT22;10178;48.034;9.800;2022-11-14T03:15:36;6.40;99.90
20035;DHT22;10178;48.034;9.800;2022-11-14T03:18:02;6.00;99.90
20035;DHT22;10178;48.034;9.800;2022-11-14T03:20:27;5.90;99.90
20035;DHT22;10178;48.034;9.800;2022-11-14T03:22:53;6.30;99.90
20035;DHT22;10178;48.034;9.800;2022-11-14T03:25:19;6.30;99.90
20035;DHT22;10178;48.034;9.800;2022-11-14T03:27:44;6.10;99.90
20035;DHT22;10178;48.034;9.800;2022-11-14T03:30:10;6.00;99.90
20035;DHT22;10178;48.034;9.800;2022-11-14T03:32:36;6.10;99.90
20035;DHT22;10178;48.034;9.800;2022-11-14T03:35:02;6.10;99.90
20035;DHT22;10178;48.034;9.800;2022-11-14T03:37:27;6.30;99.90
20035;DHT22;10178;48.034;9.800;2022-11-14T03:39:53;6.50;99.90
20035;DHT22;10178;48.034;9.800;2022-11-14T03:42:18;6.50;99.90
20035;DHT22;10178;48.034;9.800;2022-11-14T03:44:44;6.40;99.90
20035;DHT22;10178;48.034;9.800;2022-11-14T03:47:09;6.30;99.90
20035;DHT22;10178;48.034;9.800;2022-11-14T03:49:35;6.40;99.90
20035;DHT22;10178;48.034;9.800;2022-11-14T03:52:01;6.60;99.90
20035;DHT22;10178;48.034;9.800;2022-11-14T03:54:26;6.50;99.90
20035;DHT22;10178;48.034;9.800;2022-11-14T03:56:52;6.40;99.90
20035;DHT22;10178;48.034;9.800;2022-11-14T03:59:17;6.50;99.90
20035;DHT22;10178;48.034;9.800;2022-11-14T04:01:43;6.40;99.90
20035;DHT22;10178;48.034;9.800;2022-11-14T04:04:10;6.10;99.90
20035;DHT22;10178;48.034;9.800;2022-11-14T04:06:36;5.90;99.90
20035;DHT22;10178;48.034;9.800;2022-11-14T04:09:02;5.80;99.90
20035;DHT22;10178;48.034;9.800;2022-11-14T04:11:28;5.80;99.90
20035;DHT22;10178;48.034;9.800;2022-11-14T04:13:53;5.80;99.90
20035;DHT22;10178;48.034;9.800;2022-11-14T04:16:19;6.00;99.90
20035;DHT22;10178;48.034;9.800;2022-11-14T04:18:44;6.40;99.90
20035;DHT22;10178;48.034;9.800;2022-11-14T04:21:10;6.40;99.90
20035;DHT22;10178;48.034;9.800;2022-11-14T04:23:36;6.50;99.90
20035;DHT22;10178;48.034;9.800;2022-11-14T04:26:01;6.70;99.90
20035;DHT22;10178;48.034;9.800;2022-11-14T04:28:27;6.60;99.90
20035;DHT22;10178;48.034;9.800;2022-11-14T04:30:52;6.50;99.90
20035;DHT22;10178;48.034;9.800;2022-11-14T04:33:18;6.40;99.90
20035;DHT22;10178;48.034;9.800;2022-11-14T04:35:44;6.20;99.90
20035;DHT22;10178;48.034;9.800;2022-11-14T04:38:09;6.30;99.90
20035;DHT22;10178;48.034;9.800;2022-11-14T04:40:35;6.30;99.90
20035;DHT22;10178;48.034;9.800;2022-11-14T04:43:00;6.00;99.90
20035;DHT22;10178;48.034;9.800;2022-11-14T04:45:26;5.70;99.90
20035;DHT22;10178;48.034;9.800;2022-11-14T04:47:52;5.80;99.90
20035;DHT22;10178;48.034;9.800;2022-11-14T04:50:18;5.80;99.90
20035;DHT22;10178;48.034;9.800;2022-11-14T04:52:43;6.10;99.90
20035;DHT22;10178;48.034;9.800;2022-11-14T04:55:09;6.00;99.90
20035;DHT22;10178;48.034;9.800;2022-11-14T04:57:34;6.30;99.90
20035;DHT22;10178;48.034;9.800;2022-11-14T05:00:00;6.60;99.90
20035;DHT22;10178;48.034;9.800;2022-11-14T05:02:26;6.80;99.90
20035;DHT22;10178;48.034;9.800;2022-11-14T05:04:51;6.90;99.90
20035;DHT22;10178;48.034;9.800;2022-11-14T05:07:17;6.60;99.90
20035;DHT22;10178;48.034;9.800;2022-11-14T05:09:42;6.70;99.90
20035;DHT22;10178;48.034;9.800;2022-11-14T05:12:08;6.60;99.90
20035;DHT22;10178;48.034;9.800;2022-11-14T05:14:34;6.50;99.90
20035;DHT22;10178;48.034;9.800;2022-11-14T05:16:59;6.70;99.90
20035;DHT22;10178;48.034;9.800;2022-11-14T05:19:25;6.90;99.90
20035;DHT22;10178;48.034;9.800;2022-11-14T05:21:50;6.70;99.90
20035;DHT22;10178;48.034;9.800;2022-11-14T05:24:16;7.00;99.90
20035;DHT22;10178;48.034;9.800;2022-11-14T05:26:43;7.10;99.90
20035;DHT22;10178;48.034;9.800;2022-11-14T05:29:09;7.20;99.90
20035;DHT22;10178;48.034;9.800;2022-11-14T05:31:34;7.30;99.90
20035;DHT22;10178;48.034;9.800;2022-11-14T05:34:00;6.80;99.90
20035;DHT22;10178;48.034;9.800;2022-11-14T05:36:25;6.90;99.90
20035;DHT22;10178;48.034;9.800;2022-11-14T05:38:51;6.50;99.90
20035;DHT22;10178;48.034;9.800;2022-11-14T05:41:17;6.00;99.90
20035;DHT22;10178;48.034;9.800;2022-11-14T05:43:44;5.90;99.90
20035;DHT22;10178;48.034;9.800;2022-11-14T05:46:12;5.80;99.90
20035;DHT22;10178;48.034;9.800;2022-11-14T05:48:38;6.30;99.90
20035;DHT22;10178;48.034;9.800;2022-11-14T05:51:05;6.60;99.90
20035;DHT22;10178;48.034;9.800;2022-11-14T05:53:33;6.90;99.90
20035;DHT22;10178;48.034;9.800;2022-11-14T05:56:03;7.10;99.90
20035;DHT22;10178;48.034;9.800;2022-11-14T05:58:33;7.20;99.90
20035;DHT22;10178;48.034;9.800;2022-11-14T06:01:08;7.10;99.90
20035;DHT22;10178;48.034;9.800;2022-11-14T06:03:39;7.20;99.90
20035;DHT22;10178;48.034;9.800;2022-11-14T06:06:07;7.30;99.90
20035;DHT22;10178;48.034;9.800;2022-11-14T06:08:33;7.40;99.90
20035;DHT22;10178;48.034;9.800;2022-11-14T06:11:08;7.30;99.90
20035;DHT22;10178;48.034;9.800;2022-11-14T06:13:34;7.30;99.90
20035;DHT22;10178;48.034;9.800;2022-11-14T06:16:06;7.30;99.90
20035;DHT22;10178;48.034;9.800;2022-11-14T06:18:32;7.40;99.90
20035;DHT22;10178;48.034;9.800;2022-11-14T06:20:59;7.40;99.90
20035;DHT22;10178;48.034;9.800;2022-11-14T06:23:25;7.30;99.90
20035;DHT22;10178;48.034;9.800;2022-11-14T06:25:51;7.10;99.90
20035;DHT22;10178;48.034;9.800;2022-11-14T06:28:16;7.10;99.90
20035;DHT22;10178;48.034;9.800;2022-11-14T06:30:42;6.80;99.90
20035;DHT22;10178;48.034;9.800;2022-11-14T06:33:07;6.70;99.90
20035;DHT22;10178;48.034;9.800;2022-11-14T06:35:33;6.50;99.90
20035;DHT22;10178;48.034;9.800;2022-11-14T06:37:59;6.00;99.90
20035;DHT22;10178;48.034;9.800;2022-11-14T06:40:25;5.90;99.90
20035;DHT22;10178;48.034;9.800;2022-11-14T06:42:54;6.00;99.90
20035;DHT22;10178;48.034;9.800;2022-11-14T06:45:20;6.30;99.90
20035;DHT22;10178;48.034;9.800;2022-11-14T06:47:46;6.40;99.90
20035;DHT22;10178;48.034;9.800;2022-11-14T06:50:11;6.30;99.90
20035;DHT22;10178;48.034;9.800;2022-11-14T06:52:37;6.20;99.90
20035;DHT22;10178;48.034;9.800;2022-11-14T06:55:03;6.30;99.90
20035;DHT22;10178;48.034;9.800;2022-11-14T06:57:29;6.30;99.90
20035;DHT22;10178;48.034;9.800;2022-11-14T06:59:54;6.10;99.90
20035;DHT22;10178;48.034;9.800;2022-11-14T07:02:20;6.20;99.90
20035;DHT22;10178;48.034;9.800;2022-11-14T07:04:45;6.30;99.90
20035;DHT22;10178;48.034;9.800;2022-11-14T07:07:11;6.40;99.90
20035;DHT22;10178;48.034;9.800;2022-11-14T07:09:37;6.70;99.90
20035;DHT22;10178;48.034;9.800;2022-11-14T07:12:03;6.90;99.90
20035;DHT22;10178;48.034;9.800;2022-11-14T07:14:28;7.10;99.90
20035;DHT22;10178;48.034;9.800;2022-11-14T07:16:54;7.10;99.90
20035;DHT22;10178;48.034;9.800;2022-11-14T07:19:19;7.20;99.90
20035;DHT22;10178;48.034;9.800;2022-11-14T07:21:45;7.40;99.90
20035;DHT22;10178;48.034;9.800;2022-11-14T07:24:11;7.50;99.90
20035;DHT22;10178;48.034;9.800;2022-11-14T07:26:36;7.40;99.90
20035;DHT22;10178;48.034;9.800;2022-11-14T07:29:02;7.40;99.90
20035;DHT22;10178;48.034;9.800;2022-11-14T07:31:28;7.50;99.90
20035;DHT22;10178;48.034;9.800;2022-11-14T07:33:53;7.60;99.90
20035;DHT22;10178;48.034;9.800;2022-11-14T07:36:19;7.70;99.90
20035;DHT22;10178;48.034;9.800;2022-11-14T07:38:44;7.60;99.90
20035;DHT22;10178;48.034;9.800;2022-11-14T07:41:12;7.60;99.90
20035;DHT22;10178;48.034;9.800;2022-11-14T07:43:39;7.60;99.90
20035;DHT22;10178;48.034;9.800;2022-11-14T07:46:10;7.60;99.90
20035;DHT22;10178;48.034;9.800;2022-11-14T07:48:36;7.60;99.90
20035;DHT22;10178;48.034;9.800;2022-11-14T07:51:04;7.70;99.90
20035;DHT22;10178;48.034;9.800;2022-11-14T07:53:31;7.70;99.90
20035;DHT22;10178;48.034;9.800;2022-11-14T07:56:01;7.70;99.90
20035;DHT22;10178;48.034;9.800;2022-11-14T07:58:27;7.70;99.90
20035;DHT22;10178;48.034;9.800;2022-11-14T08:00:53;7.20;99.90
20035;DHT22;10178;48.034;9.800;2022-11-14T08:03:18;7.20;99.90
20035;DHT22;10178;48.034;9.800;2022-11-14T08:05:44;7.10;99.90
20035;DHT22;10178;48.034;9.800;2022-11-14T08:08:10;7.00;99.90
20035;DHT22;10178;48.034;9.800;2022-11-14T08:10:35;7.10;99.90
20035;DHT22;10178;48.034;9.800;2022-11-14T08:13:03;7.30;99.90
20035;DHT22;10178;48.034;9.800;2022-11-14T08:15:29;7.40;99.90
20035;DHT22;10178;48.034;9.800;2022-11-14T08:17:59;7.50;99.90
20035;DHT22;10178;48.034;9.800;2022-11-14T08:20:26;7.50;99.90
20035;DHT22;10178;48.034;9.800;2022-11-14T08:23:02;7.60;99.90
20035;DHT22;10178;48.034;9.800;2022-11-14T08:25:28;7.40;99.90
20035;DHT22;10178;48.034;9.800;2022-11-14T08:27:54;7.10;99.90
20035;DHT22;10178;48.034;9.800;2022-11-14T08:30:20;6.90;99.90
20035;DHT22;10178;48.034;9.800;2022-11-14T08:32:45;6.70;99.90
20035;DHT22;10178;48.034;9.800;2022-11-14T08:35:11;6.60;99.90
20035;DHT22;10178;48.034;9.800;2022-11-14T08:37:36;6.60;99.90
20035;DHT22;10178;48.034;9.800;2022-11-14T08:40:03;6.50;99.90
20035;DHT22;10178;48.034;9.800;2022-11-14T08:42:28;6.60;99.90
20035;DHT22;10178;48.034;9.800;2022-11-14T08:44:54;6.70;99.90
20035;DHT22;10178;48.034;9.800;2022-11-14T08:47:20;6.90;99.90
20035;DHT22;10178;48.034;9.800;2022-11-14T08:49:45;7.20;99.90
20035;DHT22;10178;48.034;9.800;2022-11-14T08:52:11;7.40;99.90
20035;DHT22;10178;48.034;9.800;2022-11-14T08:54:37;7.60;99.90
20035;DHT22;10178;48.034;9.800;2022-11-14T08:57:02;7.60;99.90
20035;DHT22;10178;48.034;9.800;2022-11-14T08:59:30;7.70;99.90
20035;DHT22;10178;48.034;9.800;2022-11-14T09:01:56;7.80;99.90
20035;DHT22;10178;48.034;9.800;2022-11-14T09:04:21;7.90;99.90
20035;DHT22;10178;48.034;9.800;2022-11-14T09:06:47;8.00;99.90
20035;DHT22;10178;48.034;9.800;2022-11-14T09:09:13;8.10;99.90
20035;DHT22;10178;48.034;9.800;2022-11-14T09:11:38;8.10;99.90
20035;DHT22;10178;48.034;9.800;2022-11-14T09:14:04;8.10;99.90
20035;DHT22;10178;48.034;9.800;2022-11-14T09:16:30;8.20;99.90
20035;DHT22;10178;48.034;9.800;2022-11-14T09:18:56;8.20;99.90
20035;DHT22;10178;48.034;9.800;2022-11-14T09:21:21;8.20;99.90
20035;DHT22;10178;48.034;9.800;2022-11-14T09:23:47;8.20;99.90
20035;DHT22;10178;48.034;9.800;2022-11-14T09:26:13;8.20;99.90
20035;DHT22;10178;48.034;9.800;2022-11-14T09:28:38;8.10;99.90
20035;DHT22;10178;48.034;9.800;2022-11-14T09:31:07;8.10;99.90
20035;DHT22;10178;48.034;9.800;2022-11-14T09:33:34;8.10;99.90
20035;DHT22;10178;48.034;9.800;2022-11-14T09:36:02;8.10;99.90
20035;DHT22;10178;48.034;9.800;2022-11-14T09:38:28;8.20;99.90
20035;DHT22;10178;48.034;9.800;2022-11-14T09:45:59;8.30;99.90
20035;DHT22;10178;48.034;9.800;2022-11-14T09:48:28;8.30;99.90
20035;DHT22;10178;48.034;9.800;2022-11-14T09:51:09;8.30;99.90
20035;DHT22;10178;48.034;9.800;2022-11-14T09:53:45;8.20;99.90
20035;DHT22;10178;48.034;9.800;2022-11-14T09:56:19;8.10;99.90
20035;DHT22;10178;48.034;9.800;2022-11-14T09:58:46;8.10;99.90
20035;DHT22;10178;48.034;9.800;2022-11-14T10:01:30;8.00;99.90
20035;DHT22;10178;48.034;9.800;2022-11-14T10:07:25;8.00;99.90
20035;DHT22;10178;48.034;9.800;2022-11-14T10:13:02;7.90;99.90
20035;DHT22;10178;48.034;9.800;2022-11-14T10:21:12;7.90;99.90
20035;DHT22;10178;48.034;9.800;2022-11-14T10:26:26;8.10;99.90
20035;DHT22;10178;48.034;9.800;2022-11-14T10:31:51;8.20;99.90
20035;DHT22;10178;48.034;9.800;2022-11-14T10:37:04;8.30;99.90
20035;DHT22;10178;48.034;9.800;2022-11-14T10:39:43;8.40;99.90
20035;DHT22;10178;48.034;9.800;2022-11-14T10:42:15;8.50;99.90
20035;DHT22;10178;48.034;9.800;2022-11-14T10:44:56;8.50;99.90
20035;DHT22;10178;48.034;9.800;2022-11-14T10:47:24;8.60;99.90
20035;DHT22;10178;48.034;9.800;2022-11-14T10:49:53;8.60;99.90
20035;DHT22;10178;48.034;9.800;2022-11-14T10:52:24;8.60;99.90
20035;DHT22;10178;48.034;9.800;2022-11-14T10:54:58;8.70;99.90
20035;DHT22;10178;48.034;9.800;2022-11-14T10:57:24;8.70;99.90
20035;DHT22;10178;48.034;9.800;2022-11-14T10:59:51;8.70;99.90
20035;DHT22;10178;48.034;9.800;2022-11-14T11:02:18;8.70;99.90
20035;DHT22;10178;48.034;9.800;2022-11-14T11:04:44;8.80;99.90
20035;DHT22;10178;48.034;9.800;2022-11-14T11:09:59;8.80;99.90
20035;DHT22;10178;48.034;9.800;2022-11-14T11:12:46;8.90;99.90
20035;DHT22;10178;48.034;9.800;2022-11-14T11:15:21;9.00;99.90
20035;DHT22;10178;48.034;9.800;2022-11-14T11:21:11;9.00;99.90
20035;DHT22;10178;48.034;9.800;2022-11-14T11:26:28;9.20;99.90
20035;DHT22;10178;48.034;9.800;2022-11-14T11:29:15;9.30;99.90
20035;DHT22;10178;48.034;9.800;2022-11-14T11:31:55;9.40;99.90
20035;DHT22;10178;48.034;9.800;2022-11-14T11:34:31;9.50;99.90
20035;DHT22;10178;48.034;9.800;2022-11-14T11:37:04;9.60;99.90
20035;DHT22;10178;48.034;9.800;2022-11-14T11:39:42;9.60;99.90
20035;DHT22;10178;48.034;9.800;2022-11-14T11:42:18;9.80;99.90
20035;DHT22;10178;48.034;9.800;2022-11-14T11:44:47;9.90;99.90
20035;DHT22;10178;48.034;9.800;2022-11-14T11:47:18;10.10;99.90
20035;DHT22;10178;48.034;9.800;2022-11-14T11:49:47;10.30;99.90
20035;DHT22;10178;48.034;9.800;2022-11-14T11:57:45;10.50;99.90
20035;DHT22;10178;48.034;9.800;2022-11-14T12:00:19;10.40;99.90
20035;DHT22;10178;48.034;9.800;2022-11-14T12:02:47;10.40;99.90
20035;DHT22;10178;48.034;9.800;2022-11-14T12:10:55;10.60;99.90
20035;DHT22;10178;48.034;9.800;2022-11-14T12:24:01;10.60;99.90
20035;DHT22;10178;48.034;9.800;2022-11-14T12:29:34;10.60;99.90
20035;DHT22;10178;48.034;9.800;2022-11-14T12:32:07;10.50;99.90
20035;DHT22;10178;48.034;9.800;2022-11-14T12:34:41;10.60;99.90
20035;DHT22;10178;48.034;9.800;2022-11-14T12:37:21;10.60;99.90
20035;DHT22;10178;48.034;9.800;2022-11-14T12:40:00;10.60;99.90
20035;DHT22;10178;48.034;9.800;2022-11-14T12:42:27;10.60;99.90
20035;DHT22;10178;48.034;9.800;2022-11-14T12:44:53;10.60;99.90
20035;DHT22;10178;48.034;9.800;2022-11-14T12:47:20;10.70;99.90
20035;DHT22;10178;48.034;9.800;2022-11-14T12:58:10;11.00;99.90
20035;DHT22;10178;48.034;9.800;2022-11-14T13:01:16;11.10;99.90
20035;DHT22;10178;48.034;9.800;2022-11-14T13:10:13;11.60;99.90
20035;DHT22;10178;48.034;9.800;2022-11-14T13:12:41;11.60;99.90
20035;DHT22;10178;48.034;9.800;2022-11-14T13:15:34;11.60;99.90
20035;DHT22;10178;48.034;9.800;2022-11-14T13:23:59;11.70;99.90
20035;DHT22;10178;48.034;9.800;2022-11-14T13:28:51;11.70;99.90
20035;DHT22;10178;48.034;9.800;2022-11-14T13:31:20;11.70;99.90
20035;DHT22;10178;48.034;9.800;2022-11-14T13:33:57;11.70;99.90
20035;DHT22;10178;48.034;9.800;2022-11-14T13:39:28;11.60;99.90
20035;DHT22;10178;48.034;9.800;2022-11-14T13:42:34;11.60;99.90
20035;DHT22;10178;48.034;9.800;2022-11-14T13:48:12;11.60;99.90
20035;DHT22;10178;48.034;9.800;2022-11-14T13:50:47;11.60;99.90
20035;DHT22;10178;48.034;9.800;2022-11-14T13:53:21;11.50;99.90
20035;DHT22;10178;48.034;9.800;2022-11-14T14:01:36;11.70;99.90
20035;DHT22;10178;48.034;9.800;2022-11-14T14:28:18;12.00;99.90
20035;DHT22;10178;48.034;9.800;2022-11-14T14:31:09;12.00;99.90
20035;DHT22;10178;48.034;9.800;2022-11-14T14:33:46;12.00;99.90
20035;DHT22;10178;48.034;9.800;2022-11-14T14:36:26;12.00;99.90
20035;DHT22;10178;48.034;9.800;2022-11-14T14:39:16;12.00;99.90
20035;DHT22;10178;48.034;9.800;2022-11-14T14:41:42;11.90;99.90
20035;DHT22;10178;48.034;9.800;2022-11-14T14:44:24;11.80;99.90
20035;DHT22;10178;48.034;9.800;2022-11-14T14:46:51;11.80;99.90
20035;DHT22;10178;48.034;9.800;2022-11-14T14:49:29;11.80;99.90
20035;DHT22;10178;48.034;9.800;2022-11-14T14:51:56;11.70;99.90
20035;DHT22;10178;48.034;9.800;2022-11-14T14:54:24;11.70;99.90
20035;DHT22;10178;48.034;9.800;2022-11-14T14:56:59;11.70;99.90
20035;DHT22;10178;48.034;9.800;2022-11-14T14:59:27;11.70;99.90
20035;DHT22;10178;48.034;9.800;2022-11-14T15:01:54;11.90;99.90
20035;DHT22;10178;48.034;9.800;2022-11-14T15:04:23;12.00;99.90
20035;DHT22;10178;48.034;9.800;2022-11-14T15:06:51;12.00;99.90
20035;DHT22;10178;48.034;9.800;2022-11-14T15:09:25;12.00;99.90
20035;DHT22;10178;48.034;9.800;2022-11-14T15:11:54;11.90;99.90
20035;DHT22;10178;48.034;9.800;2022-11-14T15:14:23;11.80;99.90
20035;DHT22;10178;48.034;9.800;2022-11-14T15:16:49;11.70;99.90
20035;DHT22;10178;48.034;9.800;2022-11-14T15:19:20;11.70;99.90
20035;DHT22;10178;48.034;9.800;2022-11-14T15:24:42;11.60;99.90
20035;DHT22;10178;48.034;9.800;2022-11-14T15:27:17;11.60;99.90
20035;DHT22;10178;48.034;9.800;2022-11-14T15:29:49;11.50;99.90
20035;DHT22;10178;48.034;9.800;2022-11-14T15:32:20;11.40;99.90
20035;DHT22;10178;48.034;9.800;2022-11-14T15:35:24;11.40;99.90
20035;DHT22;10178;48.034;9.800;2022-11-14T15:38:04;11.20;99.90
20035;DHT22;10178;48.034;9.800;2022-11-14T15:40:31;11.10;99.90
20035;DHT22;10178;48.034;9.800;2022-11-14T15:42:57;11.10;99.90
20035;DHT22;10178;48.034;9.800;2022-11-14T15:45:29;11.10;99.90
20035;DHT22;10178;48.034;9.800;2022-11-14T15:48:14;11.00;99.90
20035;DHT22;10178;48.034;9.800;2022-11-14T15:50:42;10.90;99.90
20035;DHT22;10178;48.034;9.800;2022-11-14T15:53:25;11.00;99.90
20035;DHT22;10178;48.034;9.800;2022-11-14T15:55:52;11.20;99.90
20035;DHT22;10178;48.034;9.800;2022-11-14T15:58:18;11.20;99.90
20035;DHT22;10178;48.034;9.800;2022-11-14T16:00:46;11.20;99.90
20035;DHT22;10178;48.034;9.800;2022-11-14T16:03:19;11.30;99.90
20035;DHT22;10178;48.034;9.800;2022-11-14T16:05:46;11.30;99.90
20035;DHT22;10178;48.034;9.800;2022-11-14T16:08:12;11.30;99.90
20035;DHT22;10178;48.034;9.800;2022-11-14T16:10:38;11.20;99.90
20035;DHT22;10178;48.034;9.800;2022-11-14T16:13:04;11.10;99.90
20035;DHT22;10178;48.034;9.800;2022-11-14T16:18:51;11.10;99.90
20035;DHT22;10178;48.034;9.800;2022-11-14T16:21:17;11.00;99.90
20035;DHT22;10178;48.034;9.800;2022-11-14T16:23:43;11.10;99.90
20035;DHT22;10178;48.034;9.800;2022-11-14T16:26:09;11.10;99.90
20035;DHT22;10178;48.034;9.800;2022-11-14T16:28:35;11.10;99.90
20035;DHT22;10178;48.034;9.800;2022-11-14T16:31:00;11.20;99.90
20035;DHT22;10178;48.034;9.800;2022-11-14T16:33:26;11.20;99.90
20035;DHT22;10178;48.034;9.800;2022-11-14T16:35:52;11.40;99.90
20035;DHT22;10178;48.034;9.800;2022-11-14T16:38:17;11.50;99.90
20035;DHT22;10178;48.034;9.800;2022-11-14T16:40:44;11.40;99.90
20035;DHT22;10178;48.034;9.800;2022-11-14T16:43:15;11.10;99.90
20035;DHT22;10178;48.034;9.800;2022-11-14T16:45:41;11.00;99.90
20035;DHT22;10178;48.034;9.800;2022-11-14T16:48:07;10.90;99.90
20035;DHT22;10178;48.034;9.800;2022-11-14T16:50:32;10.50;99.90
20035;DHT22;10178;48.034;9.800;2022-11-14T16:52:58;10.20;99.90
20035;DHT22;10178;48.034;9.800;2022-11-14T16:55:24;10.00;99.90
20035;DHT22;10178;48.034;9.800;2022-11-14T16:57:50;9.90;99.90
20035;DHT22;10178;48.034;9.800;2022-11-14T17:00:19;9.80;99.90
20035;DHT22;10178;48.034;9.800;2022-11-14T17:02:48;9.30;99.90
20035;DHT22;10178;48.034;9.800;2022-11-14T17:05:16;9.20;99.90
20035;DHT22;10178;48.034;9.800;2022-11-14T17:07:42;9.30;99.90
20035;DHT22;10178;48.034;9.800;2022-11-14T17:10:08;9.40;99.90
20035;DHT22;10178;48.034;9.800;2022-11-14T17:12:34;9.70;99.90
20035;DHT22;10178;48.034;9.800;2022-11-14T17:14:59;10.00;99.90
20035;DHT22;10178;48.034;9.800;2022-11-14T17:17:25;10.00;99.90
20035;DHT22;10178;48.034;9.800;2022-11-14T17:19:51;9.90;99.90
20035;DHT22;10178;48.034;9.800;2022-11-14T17:22:56;9.90;99.90
20035;DHT22;10178;48.034;9.800;2022-11-14T17:25:25;9.90;99.90
20035;DHT22;10178;48.034;9.800;2022-11-14T17:27:51;10.10;99.90
20035;DHT22;10178;48.034;9.800;2022-11-14T17:30:19;10.20;99.90
20035;DHT22;10178;48.034;9.800;2022-11-14T17:32:45;10.50;99.90
20035;DHT22;10178;48.034;9.800;2022-11-14T17:35:10;10.80;99.90
20035;DHT22;10178;48.034;9.800;2022-11-14T17:37:36;10.80;99.90
20035;DHT22;10178;48.034;9.800;2022-11-14T17:40:02;10.40;99.90
20035;DHT22;10178;48.034;9.800;2022-11-14T17:42:28;10.40;99.90
20035;DHT22;10178;48.034;9.800;2022-11-14T17:44:53;10.40;99.90
20035;DHT22;10178;48.034;9.800;2022-11-14T17:47:20;10.90;99.90
20035;DHT22;10178;48.034;9.800;2022-11-14T17:49:45;11.20;99.90
20035;DHT22;10178;48.034;9.800;2022-11-14T17:52:11;11.40;99.90
20035;DHT22;10178;48.034;9.800;2022-11-14T17:54:37;11.50;99.90
20035;DHT22;10178;48.034;9.800;2022-11-14T17:57:04;11.60;99.90